createdAt,value
2017-08-02T00:00:46.543Z,0
2017-08-02T00:03:11.913Z,0
2017-08-02T00:05:19.296Z,0
2017-08-02T00:07:43.625Z,0
2017-08-02T00:09:59.454Z,0
2017-08-02T00:12:23.717Z,0
2017-08-02T00:14:54.840Z,0
2017-08-02T00:17:19.128Z,0
2017-08-02T00:19:43.403Z,0
2017-08-02T00:23:44.446Z,0
2017-08-02T00:26:08.735Z,0
2017-08-02T00:28:33.024Z,0
2017-08-02T00:30:48.870Z,0
2017-08-02T00:33:04.715Z,0
2017-08-02T00:35:29.049Z,0
2017-08-02T00:37:53.314Z,0
2017-08-02T00:40:17.616Z,0
2017-08-02T00:42:41.924Z,0
2017-08-02T00:45:06.249Z,0
2017-08-02T00:47:30.615Z,0
2017-08-02T00:49:54.934Z,0
2017-08-02T00:52:19.213Z,0
2017-08-02T00:54:35.014Z,0
2017-08-02T00:56:59.285Z,0
2017-08-02T00:59:23.618Z,0
2017-08-02T01:01:47.900Z,0
2017-08-02T01:04:12.362Z,0
2017-08-02T01:06:36.640Z,0
2017-08-02T01:08:52.509Z,0
2017-08-02T01:11:16.818Z,0
2017-08-02T01:13:32.665Z,0
2017-08-02T01:15:57.074Z,0
2017-08-02T01:18:21.468Z,0
2017-08-02T01:20:45.797Z,0
2017-08-02T01:23:10.104Z,0
2017-08-02T01:25:34.403Z,0
2017-08-02T01:27:58.702Z,0
2017-08-02T01:32:25.172Z,0
2017-08-02T01:34:49.481Z,0
2017-08-02T01:37:13.803Z,0
2017-08-02T01:41:23.210Z,0
2017-08-02T01:43:47.528Z,0
2017-08-02T01:46:11.865Z,0
2017-08-02T01:48:27.704Z,0
2017-08-02T01:50:30.456Z,0
2017-08-02T01:52:54.793Z,0
2017-08-02T01:55:19.087Z,0
2017-08-02T01:57:43.409Z,0
2017-08-02T02:00:14.579Z,0
2017-08-02T02:02:38.876Z,0
2017-08-02T02:05:03.152Z,0
2017-08-02T02:07:14.169Z,0
2017-08-02T02:09:38.535Z,0
2017-08-02T02:12:02.821Z,0
2017-08-02T02:14:27.147Z,0
2017-08-02T02:16:43.030Z,0
2017-08-02T02:19:09.392Z,0
2017-08-02T02:21:34.856Z,0
2017-08-02T02:23:50.687Z,0
2017-08-02T02:26:15.007Z,0
2017-08-02T02:28:39.336Z,0
2017-08-02T02:30:55.270Z,0
2017-08-02T02:33:11.119Z,0
2017-08-02T02:35:26.954Z,0
2017-08-02T02:37:51.208Z,0
2017-08-02T02:40:07.002Z,0
2017-08-02T02:42:32.427Z,0
2017-08-02T02:44:56.726Z,0
2017-08-02T02:47:21.022Z,0
2017-08-02T02:49:32.269Z,0
2017-08-02T02:51:56.575Z,0
2017-08-02T02:54:20.887Z,0
2017-08-02T02:56:45.175Z,0
2017-08-02T02:59:09.504Z,0
2017-08-02T03:01:33.758Z,0
2017-08-02T03:03:58.010Z,0
2017-08-02T03:06:22.241Z,0
2017-08-02T03:08:33.536Z,0
2017-08-02T03:10:57.808Z,0
2017-08-02T03:13:22.036Z,0
2017-08-02T03:15:46.262Z,0
2017-08-02T03:18:10.548Z,0
2017-08-02T03:20:34.763Z,0
2017-08-02T03:23:06.045Z,0
2017-08-02T03:25:30.288Z,0
2017-08-02T03:27:54.609Z,0
2017-08-02T03:30:19.007Z,0
2017-08-02T03:32:44.443Z,0
2017-08-02T03:35:08.669Z,0
2017-08-02T03:37:32.962Z,0
2017-08-02T03:39:57.262Z,0
2017-08-02T03:42:15.180Z,4
2017-08-02T03:44:39.483Z,4
2017-08-02T03:47:03.740Z,4
2017-08-02T03:49:28.015Z,12
2017-08-02T03:51:52.283Z,16
2017-08-02T03:54:16.520Z,16
2017-08-02T03:56:40.829Z,20
2017-08-02T03:58:56.665Z,28
2017-08-02T04:01:20.925Z,44
2017-08-02T04:03:45.211Z,64
2017-08-02T04:08:12.841Z,92
2017-08-02T04:10:28.702Z,108
2017-08-02T04:12:52.970Z,128
2017-08-02T04:16:54.289Z,160
2017-08-02T04:19:18.561Z,172
2017-08-02T04:21:34.336Z,184
2017-08-02T04:23:58.580Z,212
2017-08-02T04:26:22.845Z,248
2017-08-02T04:28:47.084Z,280
2017-08-02T04:31:11.330Z,308
2017-08-02T04:33:35.568Z,272
2017-08-02T04:36:00.944Z,260
2017-08-02T04:38:25.211Z,232
2017-08-02T04:40:49.461Z,248
2017-08-02T04:43:05.240Z,348
2017-08-02T04:45:29.616Z,424
2017-08-02T04:47:53.895Z,484
2017-08-02T04:50:18.150Z,884
2017-08-02T04:52:42.409Z,932
2017-08-02T04:54:58.416Z,872
2017-08-02T04:57:22.683Z,736
2017-08-02T05:01:49.830Z,764
2017-08-02T05:04:14.104Z,708
2017-08-02T05:06:38.377Z,844
2017-08-02T05:09:02.689Z,596
2017-08-02T05:11:26.976Z,596
2017-08-02T05:13:51.285Z,732
2017-08-02T05:16:15.639Z,656
2017-08-02T05:18:39.949Z,536
2017-08-02T05:21:04.268Z,440
2017-08-02T05:23:20.237Z,396
2017-08-02T05:25:44.614Z,424
2017-08-02T05:30:11.416Z,460
2017-08-02T05:32:35.782Z,528
2017-08-02T05:34:51.747Z,860
2017-08-02T05:37:15.953Z,1708
2017-08-02T05:39:31.839Z,2068
2017-08-02T05:42:04.808Z,1124
2017-08-02T05:44:29.160Z,1116
2017-08-02T05:46:53.487Z,1028
2017-08-02T05:49:17.985Z,1216
2017-08-02T05:51:42.317Z,1120
2017-08-02T05:54:06.695Z,1332
2017-08-02T05:56:31.073Z,1564
2017-08-02T05:58:55.430Z,1856
2017-08-02T06:01:19.848Z,3220
2017-08-02T06:03:44.255Z,3728
2017-08-02T06:06:00.262Z,3540
2017-08-02T06:08:24.714Z,4800
2017-08-02T06:10:49.202Z,10996
2017-08-02T06:13:13.813Z,9496
2017-08-02T06:15:38.377Z,19136
2017-08-02T06:18:03.128Z,7440
2017-08-02T06:20:37.147Z,9128
2017-08-02T06:23:02.145Z,9244
2017-08-02T06:25:26.919Z,13008
2017-08-02T06:27:51.952Z,5648
2017-08-02T06:34:37.845Z,1336
2017-08-02T06:37:06.592Z,1136
2017-08-02T06:39:36.671Z,1024
2017-08-02T06:42:01.150Z,1164
2017-08-02T06:44:26.144Z,1236
2017-08-02T06:46:50.910Z,1276
2017-08-02T06:49:15.657Z,1232
2017-08-02T06:51:26.820Z,1392
2017-08-02T06:55:53.864Z,1208
2017-08-02T06:58:18.661Z,1244
2017-08-02T07:00:43.290Z,1260
2017-08-02T07:03:07.998Z,1264
2017-08-02T07:05:32.499Z,1320
2017-08-02T07:07:57.091Z,1416
2017-08-02T07:10:24.561Z,1892
2017-08-02T07:12:49.091Z,2708
2017-08-02T07:15:13.861Z,3900
2017-08-02T07:17:38.537Z,3736
2017-08-02T07:20:12.035Z,2392
2017-08-02T07:22:36.775Z,2716
2017-08-02T07:25:01.199Z,2540
2017-08-02T07:27:25.897Z,2188
2017-08-02T07:29:50.553Z,1652
2017-08-02T07:32:15.062Z,1496
2017-08-02T07:34:39.694Z,1868
2017-08-02T07:36:54.185Z,2524
2017-08-02T07:39:19.010Z,3120
2017-08-02T07:41:43.634Z,3260
2017-08-02T07:44:08.335Z,5808
2017-08-02T07:46:33.275Z,8112
2017-08-02T07:49:00.968Z,9536
2017-08-02T07:51:25.775Z,8456
2017-08-02T07:53:50.532Z,8596
2017-08-02T07:56:17.547Z,6920
2017-08-02T07:58:42.630Z,6140
2017-08-02T08:00:59.399Z,5112
2017-08-02T08:03:26.407Z,3220
2017-08-02T08:05:51.803Z,4100
2017-08-02T08:08:16.692Z,5392
2017-08-02T08:10:42.083Z,4944
2017-08-02T08:13:07.205Z,3948
2017-08-02T08:15:32.311Z,3796
2017-08-02T08:17:57.749Z,2604
2017-08-02T08:20:23.891Z,2448
2017-08-02T08:22:48.903Z,3872
2017-08-02T08:25:13.989Z,3484
2017-08-02T08:27:39.452Z,3524
2017-08-02T08:30:04.272Z,3348
2017-08-02T08:32:29.754Z,12492
2017-08-02T08:34:54.877Z,3884
2017-08-02T08:37:19.764Z,4100
2017-08-02T08:39:44.947Z,3992
2017-08-02T08:42:09.753Z,4240
2017-08-02T08:44:35.064Z,4304
2017-08-02T08:47:03.366Z,11040
2017-08-02T08:49:35.284Z,7224
2017-08-02T08:52:01.206Z,6748
2017-08-02T08:54:18.734Z,5876
2017-08-02T08:56:44.928Z,4948
2017-08-02T08:59:10.351Z,4668
2017-08-02T09:01:35.397Z,4436
2017-08-02T09:04:00.590Z,4632
2017-08-02T09:06:27.133Z,11200
2017-08-02T09:08:52.863Z,7236
2017-08-02T09:11:18.788Z,13576
2017-08-02T09:13:43.986Z,13064
2017-08-02T09:16:12.569Z,8864
2017-08-02T09:18:37.788Z,8632
2017-08-02T09:21:03.518Z,6548
2017-08-02T09:23:30.623Z,5424
2017-08-02T09:25:56.615Z,5808
2017-08-02T09:28:23.486Z,6448
2017-08-02T09:30:50.134Z,6216
2017-08-02T09:33:17.664Z,5772
2017-08-02T09:35:49.629Z,5672
2017-08-02T09:38:15.470Z,5912
2017-08-02T09:40:42.461Z,6072
2017-08-02T09:43:10.334Z,6680
2017-08-02T09:45:38.101Z,6240
2017-08-02T09:48:03.954Z,6172
2017-08-02T09:50:30.379Z,6396
2017-08-02T09:52:57.256Z,6760
2017-08-02T09:55:24.207Z,8276
2017-08-02T09:57:54.402Z,7592
2017-08-02T10:00:20.352Z,10848
2017-08-02T10:02:47.354Z,10608
2017-08-02T10:05:20.280Z,10704
2017-08-02T10:07:47.313Z,9732
2017-08-02T10:10:12.245Z,7392
2017-08-02T10:12:29.083Z,7120
2017-08-02T10:14:55.998Z,10136
2017-08-02T10:17:21.739Z,10024
2017-08-02T10:19:48.787Z,8988
2017-08-02T10:22:15.085Z,8204
2017-08-02T10:24:41.322Z,5708
2017-08-02T10:27:08.248Z,7648
2017-08-02T10:29:36.176Z,7720
2017-08-02T10:32:03.318Z,7596
2017-08-02T10:34:30.924Z,6464
2017-08-02T10:37:04.072Z,6544
2017-08-02T10:39:33.158Z,7100
2017-08-02T10:42:01.589Z,6388
2017-08-02T10:44:28.949Z,5928
2017-08-02T10:46:58.654Z,5672
2017-08-02T10:49:25.609Z,5900
2017-08-02T10:51:52.608Z,5896
2017-08-02T10:54:18.909Z,5292
2017-08-02T10:56:46.704Z,5224
2017-08-02T10:59:13.628Z,4780
2017-08-02T11:01:41.337Z,3520
2017-08-02T11:04:07.074Z,3956
2017-08-02T11:06:35.947Z,4848
2017-08-02T11:09:03.583Z,3976
2017-08-02T11:11:30.310Z,4180
2017-08-02T11:13:58.636Z,5468
2017-08-02T11:16:23.954Z,5796
2017-08-02T11:18:49.160Z,6004
2017-08-02T11:21:14.855Z,5416
2017-08-02T11:23:40.170Z,4816
2017-08-02T11:26:05.669Z,4816
2017-08-02T11:28:31.253Z,5444
2017-08-02T11:30:58.071Z,5556
2017-08-02T11:33:24.377Z,5016
2017-08-02T11:35:53.814Z,4920
2017-08-02T11:38:20.193Z,5024
2017-08-02T11:40:46.195Z,5008
2017-08-02T11:43:12.310Z,4968
2017-08-02T11:45:37.993Z,4780
2017-08-02T11:48:01.807Z,4576
2017-08-02T11:50:29.275Z,4512
2017-08-02T11:52:57.709Z,4412
2017-08-02T11:55:23.584Z,4288
2017-08-02T11:57:40.877Z,4120
2017-08-02T12:00:06.861Z,3976
2017-08-02T12:02:34.903Z,3692
2017-08-02T12:05:00.388Z,3432
2017-08-02T12:07:26.444Z,3388
2017-08-02T12:09:51.796Z,3588
2017-08-02T12:12:18.236Z,3648
2017-08-02T12:16:41.511Z,3320
2017-08-02T12:19:07.464Z,3252
2017-08-02T12:21:33.864Z,3184
2017-08-02T12:23:59.019Z,3028
2017-08-02T12:26:24.413Z,3176
2017-08-02T12:28:50.500Z,3160
2017-08-02T12:31:15.963Z,3292
2017-08-02T12:33:42.701Z,3524
2017-08-02T12:36:08.422Z,3336
2017-08-02T12:38:33.371Z,2940
2017-08-02T12:40:59.685Z,3020
2017-08-02T12:43:25.436Z,3260
2017-08-02T12:45:50.363Z,3484
2017-08-02T12:48:16.568Z,3052
2017-08-02T12:50:42.305Z,3524
2017-08-02T12:53:07.525Z,3704
2017-08-02T12:55:34.846Z,3800
2017-08-02T12:58:00.418Z,3608
2017-08-02T13:00:27.665Z,3372
2017-08-02T13:02:53.420Z,3320
2017-08-02T13:05:21.808Z,3164
2017-08-02T13:07:48.142Z,3028
2017-08-02T13:10:13.850Z,3064
2017-08-02T13:12:39.282Z,2872
2017-08-02T13:15:04.361Z,3008
2017-08-02T13:17:29.703Z,3100
2017-08-02T13:20:03.389Z,2968
2017-08-02T13:22:29.408Z,2796
2017-08-02T13:24:57.291Z,2820
2017-08-02T13:27:22.583Z,2856
2017-08-02T13:29:49.524Z,3056
2017-08-02T13:32:18.107Z,3060
2017-08-02T13:34:49.971Z,2944
2017-08-02T13:37:15.450Z,2816
2017-08-02T13:39:41.158Z,2292
2017-08-02T13:42:06.669Z,2420
2017-08-02T13:44:33.041Z,2352
2017-08-02T13:46:58.262Z,2560
2017-08-02T13:49:23.733Z,2680
2017-08-02T13:51:49.059Z,2980
2017-08-02T13:54:16.436Z,2772
2017-08-02T13:56:41.666Z,2844
2017-08-02T13:59:06.893Z,2656
2017-08-02T14:03:09.561Z,2700
2017-08-02T14:05:34.704Z,2728
2017-08-02T14:08:01.469Z,2864
2017-08-02T14:10:27.619Z,3216
2017-08-02T14:12:52.827Z,3228
2017-08-02T14:15:18.183Z,3032
2017-08-02T14:17:44.380Z,3056
2017-08-02T14:20:10.343Z,2884
2017-08-02T14:22:35.897Z,2752
2017-08-02T14:25:01.730Z,2628
2017-08-02T14:27:27.716Z,2588
2017-08-02T14:29:54.126Z,2480
2017-08-02T14:32:19.363Z,2464
2017-08-02T14:34:46.695Z,2580
2017-08-02T14:37:12.656Z,2744
2017-08-02T14:39:38.239Z,2704
2017-08-02T14:42:03.732Z,2808
2017-08-02T14:44:29.162Z,2984
2017-08-02T14:46:55.068Z,3156
2017-08-02T14:49:20.048Z,3200
2017-08-02T14:51:45.622Z,3128
2017-08-02T14:54:10.910Z,2984
2017-08-02T14:56:36.033Z,2928
2017-08-02T14:59:01.323Z,2820
2017-08-02T15:01:27.599Z,3024
2017-08-02T15:03:52.838Z,3128
2017-08-02T15:06:19.136Z,3084
2017-08-02T15:08:44.479Z,2932
2017-08-02T15:11:10.175Z,3044
2017-08-02T15:13:38.065Z,2844
2017-08-02T15:16:04.514Z,2664
2017-08-02T15:18:31.532Z,2592
2017-08-02T15:20:57.177Z,2536
2017-08-02T15:23:22.445Z,2492
2017-08-02T15:25:47.824Z,2472
2017-08-02T15:28:13.199Z,2468
2017-08-02T15:30:38.423Z,2480
2017-08-02T15:33:04.020Z,2476
2017-08-02T15:35:29.175Z,2528
2017-08-02T15:37:54.381Z,2636
2017-08-02T15:40:19.617Z,2604
2017-08-02T15:42:44.779Z,2528
2017-08-02T15:45:09.931Z,2440
2017-08-02T15:47:35.090Z,2376
2017-08-02T15:50:00.278Z,2308
2017-08-02T15:52:25.456Z,2272
2017-08-02T15:54:50.637Z,2280
2017-08-02T15:57:15.783Z,2232
2017-08-02T15:59:40.984Z,2244
2017-08-02T16:02:06.124Z,2292
2017-08-02T16:04:31.337Z,2268
2017-08-02T16:06:56.456Z,2240
2017-08-02T16:09:21.634Z,2356
2017-08-02T16:11:46.932Z,2364
2017-08-02T16:14:12.109Z,2244
2017-08-02T16:16:37.219Z,2140
2017-08-02T16:19:02.394Z,2140
2017-08-02T16:21:27.520Z,2152
2017-08-02T16:23:53.755Z,2092
2017-08-02T16:26:18.966Z,2008
2017-08-02T16:28:44.089Z,1984
2017-08-02T16:31:09.216Z,1972
2017-08-02T16:33:34.534Z,2004
2017-08-02T16:35:59.647Z,2040
2017-08-02T16:40:27.582Z,1912
2017-08-02T16:42:52.727Z,1964
2017-08-02T16:47:12.135Z,1924
2017-08-02T16:49:38.006Z,1944
2017-08-02T16:52:03.228Z,1928
2017-08-02T16:54:28.437Z,1828
2017-08-02T16:56:53.782Z,1780
2017-08-02T16:59:19.270Z,1844
2017-08-02T17:01:44.105Z,1648
2017-08-02T17:04:09.093Z,1652
2017-08-02T17:06:34.316Z,1556
2017-08-02T17:08:59.484Z,1460
2017-08-02T17:11:24.513Z,1444
2017-08-02T17:13:49.725Z,1344
2017-08-02T17:16:14.426Z,1292
2017-08-02T17:18:39.497Z,1212
2017-08-02T17:21:04.488Z,1152
2017-08-02T17:23:29.523Z,1112
2017-08-02T17:25:54.456Z,1072
2017-08-02T17:28:19.557Z,1032
2017-08-02T17:30:44.846Z,996
2017-08-02T17:33:09.817Z,968
2017-08-02T17:35:35.073Z,948
2017-08-02T17:38:00.547Z,932
2017-08-02T17:40:25.317Z,924
2017-08-02T17:42:50.580Z,916
2017-08-02T17:45:15.260Z,900
2017-08-02T17:47:40.241Z,888
2017-08-02T17:50:05.240Z,876
2017-08-02T17:52:30.100Z,868
2017-08-02T17:54:55.069Z,856
2017-08-02T17:57:20.012Z,828
2017-08-02T17:59:44.954Z,808
2017-08-02T18:02:09.900Z,780
2017-08-02T18:04:34.989Z,756
2017-08-02T18:06:59.888Z,752
2017-08-02T18:09:24.911Z,748
2017-08-02T18:11:49.835Z,756
2017-08-02T18:14:14.841Z,772
2017-08-02T18:16:26.197Z,768
2017-08-02T18:18:51.169Z,740
2017-08-02T18:21:16.045Z,680
2017-08-02T18:23:40.984Z,628
2017-08-02T18:26:05.850Z,580
2017-08-02T18:28:30.764Z,540
2017-08-02T18:30:55.637Z,484
2017-08-02T18:33:21.576Z,428
2017-08-02T18:35:46.404Z,376
2017-08-02T18:38:11.260Z,336
2017-08-02T18:40:36.293Z,296
2017-08-02T18:43:01.186Z,260
2017-08-02T18:45:26.044Z,228
2017-08-02T18:47:50.941Z,196
2017-08-02T18:50:15.752Z,168
2017-08-02T18:52:40.643Z,144
2017-08-02T18:55:08.710Z,120
2017-08-02T18:57:36.258Z,96
2017-08-02T19:00:10.833Z,76
2017-08-02T19:02:35.108Z,64
2017-08-02T19:05:07.558Z,52
2017-08-02T19:07:35.110Z,40
2017-08-02T19:10:15.474Z,28
2017-08-02T19:12:40.838Z,24
2017-08-02T19:15:05.721Z,12
2017-08-02T19:17:31.658Z,12
2017-08-02T19:19:57.121Z,8
2017-08-02T19:22:22.411Z,4
2017-08-02T19:24:47.614Z,4
2017-08-02T19:27:27.834Z,0
2017-08-02T19:29:53.047Z,0
2017-08-02T19:32:18.415Z,0
2017-08-02T19:47:29.101Z,0
2017-08-02T19:49:54.102Z,0
2017-08-02T19:52:19.726Z,0
2017-08-02T19:54:45.713Z,0
2017-08-02T19:57:11.285Z,0
2017-08-02T19:59:38.263Z,0
2017-08-02T20:02:04.202Z,0
2017-08-02T20:04:30.658Z,0
2017-08-02T20:10:05.062Z,0
2017-08-02T20:12:31.558Z,0
2017-08-02T20:14:59.539Z,0
2017-08-02T20:17:28.666Z,0
2017-08-02T20:19:55.017Z,0
2017-08-02T20:22:19.604Z,0
2017-08-02T20:24:44.318Z,0
2017-08-02T20:27:08.929Z,0
2017-08-02T20:29:33.621Z,0
2017-08-02T20:31:58.120Z,0
2017-08-02T20:34:22.605Z,0
2017-08-02T20:36:47.227Z,0
2017-08-02T20:39:11.905Z,0
2017-08-02T20:41:36.530Z,0
2017-08-02T20:44:01.252Z,0
2017-08-02T20:46:25.698Z,0
2017-08-02T20:48:50.421Z,0
2017-08-02T20:51:14.832Z,0
2017-08-02T20:53:39.412Z,0
2017-08-02T20:56:05.208Z,0
2017-08-02T20:58:28.776Z,0
2017-08-02T21:00:53.308Z,0
2017-08-02T21:03:17.844Z,0
2017-08-02T21:05:42.639Z,0
2017-08-02T21:08:07.064Z,0
2017-08-02T21:10:31.622Z,0
2017-08-02T21:12:56.203Z,0
2017-08-02T21:15:20.702Z,0
2017-08-02T21:17:45.303Z,0
2017-08-02T21:20:09.911Z,0
2017-08-02T21:22:34.440Z,0
2017-08-02T21:24:58.849Z,0
2017-08-02T21:27:23.336Z,0
2017-08-02T21:29:49.366Z,0
2017-08-02T21:32:13.894Z,0
2017-08-02T21:34:38.521Z,0
2017-08-02T21:37:03.083Z,0
2017-08-02T21:39:27.633Z,0
2017-08-02T21:41:52.006Z,0
2017-08-02T21:44:16.490Z,0
2017-08-02T21:46:40.973Z,0
2017-08-02T21:49:05.387Z,0
2017-08-02T21:53:23.410Z,0
2017-08-02T21:55:53.490Z,0
2017-08-02T21:58:14.051Z,0
2017-08-02T22:00:38.885Z,0
2017-08-02T22:03:03.372Z,0
2017-08-02T22:05:27.890Z,0
2017-08-02T22:07:43.889Z,0
2017-08-02T22:09:59.889Z,0
2017-08-02T22:12:24.339Z,0
2017-08-02T22:14:48.799Z,0
2017-08-02T22:17:14.870Z,0
2017-08-02T22:19:39.295Z,0
2017-08-02T22:22:03.754Z,0
2017-08-02T22:24:19.738Z,0
2017-08-02T22:26:44.201Z,0
2017-08-02T22:29:08.686Z,0
2017-08-02T22:31:33.152Z,0
2017-08-02T22:33:57.633Z,0
2017-08-02T22:36:22.120Z,0
2017-08-02T22:38:46.612Z,0
2017-08-02T22:41:11.080Z,0
2017-08-02T22:43:35.519Z,0
2017-08-02T22:45:51.487Z,0
2017-08-02T22:47:58.997Z,0
2017-08-02T22:50:23.454Z,0
2017-08-02T22:52:47.913Z,0
2017-08-02T22:55:12.392Z,0
2017-08-02T22:57:28.405Z,0
2017-08-02T22:59:44.366Z,0
2017-08-02T23:02:08.770Z,0
2017-08-02T23:04:33.301Z,0
2017-08-02T23:06:57.776Z,0
2017-08-02T23:09:22.244Z,0
2017-08-02T23:13:40.237Z,0
2017-08-02T23:16:04.699Z,0
2017-08-02T23:20:31.030Z,0
2017-08-02T23:22:47.046Z,0
2017-08-02T23:25:03.019Z,0
2017-08-02T23:27:27.477Z,0
2017-08-02T23:29:43.478Z,0
2017-08-02T23:32:07.927Z,0
2017-08-02T23:34:23.925Z,0
2017-08-02T23:36:48.375Z,0
2017-08-02T23:39:12.837Z,0
2017-08-02T23:41:37.296Z,0
2017-08-02T23:44:01.709Z,0
2017-08-02T23:46:26.147Z,0
2017-08-02T23:48:50.596Z,0
2017-08-02T23:51:15.066Z,0
2017-08-02T23:53:39.514Z,0
2017-08-02T23:55:55.500Z,0
2017-08-02T23:58:11.487Z,0
